createdAt,value
2022-08-30T00:02:25.761Z,100.00
2022-08-30T00:07:35.196Z,100.00
2022-08-30T00:12:41.151Z,100.00
2022-08-30T00:17:46.187Z,100.00
2022-08-30T00:22:53.949Z,100.00
2022-08-30T00:27:58.827Z,100.00
2022-08-30T00:33:03.888Z,100.00
2022-08-30T00:38:12.160Z,100.00
2022-08-30T00:43:23.225Z,100.00
2022-08-30T00:48:30.548Z,100.00
2022-08-30T00:53:42.219Z,100.00
2022-08-30T00:58:51.551Z,100.00
2022-08-30T01:03:57.339Z,100.00
2022-08-30T01:09:06.225Z,100.00
2022-08-30T01:14:13.033Z,100.00
2022-08-30T01:19:26.996Z,100.00
2022-08-30T01:24:38.916Z,100.00
2022-08-30T01:29:45.221Z,100.00
2022-08-30T01:34:50.811Z,100.00
2022-08-30T01:39:58.556Z,100.00
2022-08-30T01:45:03.670Z,100.00
2022-08-30T01:50:09.525Z,100.00
2022-08-30T01:55:16.834Z,100.00
2022-08-30T02:00:21.910Z,100.00
2022-08-30T02:05:27.934Z,100.00
2022-08-30T02:10:35.605Z,100.00
2022-08-30T02:15:41.622Z,100.00
2022-08-30T02:20:46.636Z,100.00
2022-08-30T02:26:01.501Z,100.00
2022-08-30T02:31:06.560Z,100.00
2022-08-30T02:36:11.531Z,100.00
2022-08-30T02:41:19.201Z,100.00
2022-08-30T02:46:24.040Z,100.00
2022-08-30T02:51:28.638Z,100.00
2022-08-30T02:56:36.779Z,100.00
2022-08-30T03:01:41.839Z,100.00
2022-08-30T03:06:46.723Z,100.00
2022-08-30T03:11:54.820Z,100.00
2022-08-30T03:16:59.448Z,100.00
2022-08-30T03:22:06.254Z,100.00
2022-08-30T03:27:15.412Z,100.00
2022-08-30T03:32:20.246Z,100.00
2022-08-30T03:37:27.423Z,100.00
2022-08-30T03:42:34.875Z,100.00
2022-08-30T03:47:39.883Z,100.00
2022-08-30T03:52:47.595Z,100.00
2022-08-30T03:57:54.753Z,100.00
2022-08-30T04:03:00.616Z,100.00
2022-08-30T04:08:06.434Z,100.00
2022-08-30T04:13:13.621Z,100.00
2022-08-30T04:18:18.548Z,100.00
2022-08-30T04:23:23.155Z,100.00
2022-08-30T04:28:30.451Z,100.00
2022-08-30T04:33:37.180Z,100.00
2022-08-30T04:38:44.140Z,100.00
2022-08-30T04:43:52.409Z,100.00
2022-08-30T04:48:58.171Z,100.00
2022-08-30T04:54:03.109Z,100.00
2022-08-30T04:59:10.248Z,100.00
2022-08-30T05:04:14.955Z,100.00
2022-08-30T05:09:21.644Z,100.00
2022-08-30T05:14:28.908Z,100.00
2022-08-30T05:19:34.560Z,100.00
2022-08-30T05:24:39.654Z,100.00
2022-08-30T05:29:46.862Z,100.00
2022-08-30T05:34:51.459Z,100.00
2022-08-30T05:39:56.685Z,100.00
2022-08-30T05:45:04.507Z,100.00
2022-08-30T05:50:11.882Z,100.00
2022-08-30T05:55:23.073Z,100.00
2022-08-30T06:00:31.218Z,100.00
2022-08-30T06:05:35.845Z,100.00
2022-08-30T06:10:40.533Z,100.00
2022-08-30T06:15:47.792Z,100.00
2022-08-30T06:20:52.418Z,100.00
2022-08-30T06:25:56.930Z,100.00
2022-08-30T06:31:04.227Z,100.00
2022-08-30T06:36:11.375Z,100.00
2022-08-30T06:41:25.752Z,100.00
2022-08-30T06:46:35.618Z,100.00
2022-08-30T06:51:42.958Z,100.00
2022-08-30T06:56:58.671Z,100.00
2022-08-30T07:02:06.646Z,100.00
2022-08-30T07:07:14.493Z,100.00
2022-08-30T07:12:19.168Z,100.00
2022-08-30T07:17:39.299Z,100.00
2022-08-30T07:22:43.976Z,100.00
2022-08-30T07:27:50.353Z,100.00
2022-08-30T07:32:57.541Z,100.00
2022-08-30T07:38:02.428Z,100.00
2022-08-30T07:43:07.548Z,100.00
2022-08-30T07:48:16.333Z,100.00
2022-08-30T07:53:21.232Z,100.00
2022-08-30T07:58:30.287Z,100.00
2022-08-30T08:03:39.144Z,100.00
2022-08-30T08:08:47.670Z,100.00
2022-08-30T08:13:54.937Z,100.00
2022-08-30T08:19:02.501Z,100.00
2022-08-30T08:24:08.749Z,100.00
2022-08-30T08:29:13.609Z,100.00
2022-08-30T08:34:23.532Z,100.00
2022-08-30T08:39:28.382Z,100.00
2022-08-30T08:44:54.812Z,100.00
2022-08-30T08:50:07.492Z,100.00
2022-08-30T08:55:15.608Z,100.00
2022-08-30T09:00:21.254Z,100.00
2022-08-30T09:05:31.804Z,100.00
2022-08-30T09:10:50.332Z,100.00
2022-08-30T09:15:56.738Z,100.00
2022-08-30T09:21:11.733Z,100.00
2022-08-30T09:26:16.648Z,100.00
2022-08-30T09:31:24.779Z,100.00
2022-08-30T09:36:35.757Z,100.00
2022-08-30T09:41:44.140Z,100.00
2022-08-30T09:46:53.050Z,100.00
2022-08-30T09:52:13.385Z,100.00
2022-08-30T09:57:33.746Z,100.00
2022-08-30T10:03:04.254Z,100.00
2022-08-30T10:08:26.808Z,100.00
2022-08-30T10:13:59.429Z,100.00
2022-08-30T10:25:10.092Z,100.00
2022-08-30T10:30:18.475Z,100.00
2022-08-30T10:35:42.751Z,100.00
2022-08-30T10:41:16.954Z,100.00
2022-08-30T10:46:29.241Z,100.00
2022-08-30T10:51:41.547Z,100.00
2022-08-30T10:56:52.758Z,100.00
2022-08-30T11:02:08.834Z,100.00
2022-08-30T11:07:26.178Z,100.00
2022-08-30T11:12:37.414Z,100.00
2022-08-30T11:17:45.242Z,100.00
2022-08-30T11:23:24.442Z,100.00
2022-08-30T11:28:59.331Z,100.00
2022-08-30T11:34:07.530Z,100.00
2022-08-30T11:39:15.032Z,100.00
2022-08-30T11:44:33.350Z,100.00
2022-08-30T11:49:59.090Z,100.00
2022-08-30T11:55:20.552Z,100.00
2022-08-30T12:00:34.917Z,100.00
2022-08-30T12:05:59.050Z,98.95
2022-08-30T12:11:09.217Z,100.00
2022-08-30T12:16:16.426Z,100.00
2022-08-30T12:21:43.845Z,89.61
2022-08-30T12:26:53.398Z,96.62
2022-08-30T12:32:05.474Z,93.54
2022-08-30T12:37:24.404Z,88.42
2022-08-30T12:42:32.643Z,84.31
2022-08-30T12:47:45.032Z,88.49
2022-08-30T12:53:00.317Z,92.82
2022-08-30T12:58:09.498Z,90.43
2022-08-30T13:03:32.478Z,88.47
2022-08-30T13:08:52.232Z,89.88
2022-08-30T13:14:00.351Z,90.47
2022-08-30T13:19:29.006Z,84.36
2022-08-30T13:24:36.482Z,90.90
2022-08-30T13:29:42.354Z,89.45
2022-08-30T13:34:47.770Z,80.94
2022-08-30T13:39:55.203Z,83.60
2022-08-30T13:45:00.138Z,83.19
2022-08-30T13:50:04.993Z,87.93
2022-08-30T13:55:12.869Z,84.88
2022-08-30T14:00:22.608Z,80.79
2022-08-30T14:11:01.995Z,75.37
2022-08-30T14:21:35.936Z,70.45
2022-08-30T14:26:47.640Z,71.72
2022-08-30T14:31:52.367Z,72.34
2022-08-30T14:36:56.973Z,76.45
2022-08-30T14:42:07.635Z,74.22
2022-08-30T14:47:14.262Z,74.29
2022-08-30T14:52:18.784Z,73.10
2022-08-30T14:57:25.978Z,75.72
2022-08-30T15:02:30.662Z,75.43
2022-08-30T15:07:35.901Z,68.98
2022-08-30T15:12:44.480Z,66.39
2022-08-30T15:17:50.799Z,66.76
2022-08-30T15:22:55.580Z,65.73
2022-08-30T15:28:02.743Z,63.54
2022-08-30T15:33:08.108Z,63.24
2022-08-30T15:38:13.553Z,64.16
2022-08-30T15:43:20.908Z,64.49
2022-08-30T15:48:26.325Z,67.39
2022-08-30T15:53:31.024Z,65.92
2022-08-30T15:58:40.420Z,68.25
2022-08-30T16:03:46.117Z,71.15
2022-08-30T16:08:51.069Z,70.56
2022-08-30T16:13:59.738Z,72.51
2022-08-30T16:19:04.637Z,72.80
2022-08-30T16:24:13.717Z,75.25
2022-08-30T16:29:21.770Z,75.94
2022-08-30T16:34:26.416Z,74.02
2022-08-30T16:39:31.595Z,75.28
2022-08-30T16:44:40.259Z,75.81
2022-08-30T16:49:45.439Z,79.73
2022-08-30T16:54:52.244Z,84.46
2022-08-30T16:59:59.737Z,89.73
2022-08-30T17:05:04.423Z,94.35
2022-08-30T17:10:09.372Z,97.33
2022-08-30T17:15:20.854Z,100.00
2022-08-30T17:20:26.935Z,100.00
2022-08-30T17:25:34.061Z,100.00
2022-08-30T17:30:42.901Z,100.00
2022-08-30T17:35:50.805Z,100.00
2022-08-30T17:40:55.539Z,100.00
2022-08-30T17:46:18.439Z,100.00
2022-08-30T17:51:23.431Z,100.00
2022-08-30T17:56:34.368Z,100.00
2022-08-30T18:01:44.738Z,100.00
2022-08-30T18:12:39.119Z,100.00
2022-08-30T18:17:49.976Z,100.00
2022-08-30T18:22:54.862Z,100.00
2022-08-30T18:28:01.105Z,100.00
2022-08-30T18:33:08.906Z,100.00
2022-08-30T18:38:15.026Z,100.00
2022-08-30T18:43:24.642Z,100.00
2022-08-30T18:48:39.218Z,100.00
2022-08-30T18:53:45.464Z,100.00
2022-08-30T18:58:50.605Z,100.00
2022-08-30T19:03:58.050Z,100.00
2022-08-30T19:09:02.959Z,100.00
2022-08-30T19:14:13.959Z,100.00
2022-08-30T19:19:22.167Z,100.00
2022-08-30T19:24:26.995Z,100.00
2022-08-30T19:29:31.889Z,100.00
2022-08-30T19:34:39.152Z,100.00
2022-08-30T19:39:44.610Z,100.00
2022-08-30T19:45:00.146Z,100.00
2022-08-30T19:50:05.244Z,100.00
2022-08-30T19:55:12.515Z,100.00
2022-08-30T20:00:20.710Z,100.00
2022-08-30T20:05:25.383Z,100.00
2022-08-30T20:10:30.211Z,100.00
2022-08-30T20:15:38.499Z,100.00
2022-08-30T20:20:49.900Z,100.00
2022-08-30T20:25:56.069Z,100.00
2022-08-30T20:31:05.732Z,100.00
2022-08-30T20:36:13.293Z,100.00
2022-08-30T20:41:19.976Z,100.00
2022-08-30T20:46:31.998Z,100.00
2022-08-30T20:51:39.460Z,100.00
2022-08-30T20:56:44.139Z,100.00
2022-08-30T21:01:51.442Z,100.00
2022-08-30T21:06:56.632Z,100.00
2022-08-30T21:12:01.297Z,100.00
2022-08-30T21:17:08.572Z,100.00
2022-08-30T21:22:14.680Z,100.00
2022-08-30T21:27:21.304Z,100.00
2022-08-30T21:32:28.564Z,100.00
2022-08-30T21:37:36.160Z,100.00
2022-08-30T21:42:42.209Z,100.00
2022-08-30T21:47:49.428Z,100.00
2022-08-30T21:52:55.582Z,100.00
2022-08-30T21:58:02.074Z,100.00
2022-08-30T22:03:11.580Z,100.00
2022-08-30T22:08:16.638Z,100.00
2022-08-30T22:13:21.150Z,100.00
2022-08-30T22:18:28.611Z,100.00
2022-08-30T22:23:33.924Z,100.00
2022-08-30T22:28:39.421Z,100.00
2022-08-30T22:33:48.063Z,100.00
2022-08-30T22:38:54.375Z,100.00
2022-08-30T22:43:58.891Z,100.00
2022-08-30T22:49:07.324Z,100.00
2022-08-30T22:54:12.428Z,100.00
2022-08-30T22:59:17.978Z,100.00
2022-08-30T23:04:25.409Z,100.00
2022-08-30T23:09:31.580Z,100.00
2022-08-30T23:14:37.472Z,100.00
2022-08-30T23:19:44.821Z,100.00
2022-08-30T23:25:02.062Z,100.00
2022-08-30T23:30:20.622Z,100.00
2022-08-30T23:35:40.284Z,100.00
2022-08-30T23:40:58.207Z,100.00
2022-08-30T23:46:19.264Z,100.00
2022-08-30T23:51:39.499Z,100.00
2022-08-30T23:56:56.960Z,100.00
